Chemical Pioneer — KAFO — position and weather

sailwx.info

Track history (hours):
 
Tides and Currents Weather Stations Pressure Air Temp Water Temp Dewpoint Dewpoint Depression Visibility Wind Speed Wind Dir Waves Ship Positions

Chemical Pioneer

Owner: US Shipping Corp, Edison, NJ. More information available from US FCC via Universal Licensing System and Coast Guard Vessel Documentation Center.

Last reported at 2017-Feb-23 08:09 UTC. Time now 2017-Feb-23 18:54 UTC.
Position N 28°57' W 095°19'.

Type: Tanker. MMSI: 366032000.

Date/timePositionNaut miles runAvg speedWind from/ knotsBaromVisibWave heightAir tempDewpointWater temp
2017-Feb-23 08:09N 28°57' W 095°19'0 0.0
2017-Feb-23 07:24N 28°57' W 095°19'0 0.0
2017-Feb-23 06:13N 28°57' W 095°19'2 3.8
2017-Feb-23 05:34N 28°55' W 095°17'1414.3
2017-Feb-23 04:34N 28°50' W 095°02'1615.7
2017-Feb-23 03:33N 28°57' W 094°45'1816.1
2017-Feb-23 02:27N 29°07' W 094°29'1314.8
2017-Feb-23 01:33N 29°18' W 094°37'1212.1
2017-Feb-23 00:32N 29°22' W 094°50'4 4.0
2017-Feb-22 23:33N 29°22' W 094°55'0 0.0
2017-Feb-22 10:32N 29°22' W 094°55'2 2.0
2017-Feb-22 09:33N 29°23' W 094°53'8 6.5
2017-Feb-22 08:24N 29°21' W 094°45'0 0.0
2017-Feb-21 23:27N 29°21' W 094°45'  
2017-Feb-19 18:16N 29°12' W 094°34'4 0.4
2017-Feb-19 07:33N 29°11' W 094°30'1414.0
2017-Feb-19 06:33N 29°16' W 094°14'2016.5
2017-Feb-19 05:21N 29°29' W 093°57'1316.8
2017-Feb-19 04:33N 29°32' W 093°43'1616.6
2017-Feb-19 03:33N 29°36' W 093°24'1010.3
2017-Feb-19 02:33N 29°46' W 093°21'8 7.9
2017-Feb-19 01:34N 29°54' W 093°21'7 7.2
2017-Feb-19 00:34N 30°01' W 093°20'8 8.0
2017-Feb-18 23:34N 30°09' W 093°20'4 4.5
2017-Feb-18 22:34N 30°12' W 093°17'1 0.1
2017-Feb-18 03:17N 30°13' W 093°17'0 0.0
2017-Feb-18 02:23N 30°13' W 093°17'0 0.0
2017-Feb-17 21:05N 30°13' W 093°17'0 0.0
2017-Feb-17 17:34N 30°13' W 093°17'3 3.1
2017-Feb-17 16:34N 30°11' W 093°19'6 6.4
2017-Feb-17 15:34N 30°04' W 093°20'8 8.4
2017-Feb-17 14:34N 29°56' W 093°20'1110.8
2017-Feb-17 13:33N 29°45' W 093°21'9 9.0
2017-Feb-17 12:33N 29°37' W 093°16'0 0.2
2017-Feb-17 10:28N 29°37' W 093°16'0 0.0
2017-Feb-17 09:31N 29°37' W 093°16'0 0.0
2017-Feb-17 06:28N 29°37' W 093°16'0 0.0
2017-Feb-17 05:28N 29°37' W 093°16'0 0.0
2017-Feb-17 02:25N 29°37' W 093°16'0 0.0
2017-Feb-17 01:31N 29°37' W 093°16'  
2017-Feb-14 16:32N 25°01' W 080°11'1616.0
2017-Feb-14 15:33N 25°16' W 080°05'1414.3
2017-Feb-14 14:33N 25°30' W 080°02'1414.2
2017-Feb-14 13:33N 25°44' W 080°01'1313.3
2017-Feb-14 12:33N 25°57' W 079°59'1313.4
2017-Feb-14 11:33N 26°10' W 079°58'1413.7
2017-Feb-14 10:33N 26°24' W 079°57'1514.9
2017-Feb-14 09:33N 26°39' W 079°56'1414.1
2017-Feb-14 08:33N 26°53' W 079°55'1414.2
2017-Feb-14 07:33N 27°07' W 079°58'31515.4
2017-Feb-13 11:04N 32°16' W 078°47'916.6
2017-Feb-13 10:33N 32°22' W 078°40'  
Track history (hours):
 
Tides and Currents Weather Stations Pressure Air Temp Water Temp Dewpoint Dewpoint Depression Visibility Wind Speed Wind Dir Waves Ship Positions

Chemical Pioneer

Owner: US Shipping Corp, Edison, NJ. More information available from US FCC via Universal Licensing System and Coast Guard Vessel Documentation Center.

Last reported at 2017-Feb-23 08:09 UTC. Time now 2017-Feb-23 18:54 UTC.
Position N 28°57' W 095°19'.

Type: Tanker. MMSI: 366032000.

Date/timePositionNaut miles runAvg speedWind from/ knotsBaromVisibWave heightAir tempDewpointWater temp
2017-Feb-23 08:09N 28°57' W 095°19'0 0.0
2017-Feb-23 07:24N 28°57' W 095°19'0 0.0
2017-Feb-23 06:13N 28°57' W 095°19'2 3.8
2017-Feb-23 05:34N 28°55' W 095°17'1414.3
2017-Feb-23 04:34N 28°50' W 095°02'1615.7
2017-Feb-23 03:33N 28°57' W 094°45'1816.1
2017-Feb-23 02:27N 29°07' W 094°29'1314.8
2017-Feb-23 01:33N 29°18' W 094°37'1212.1
2017-Feb-23 00:32N 29°22' W 094°50'4 4.0
2017-Feb-22 23:33N 29°22' W 094°55'0 0.0
2017-Feb-22 10:32N 29°22' W 094°55'2 2.0
2017-Feb-22 09:33N 29°23' W 094°53'8 6.5
2017-Feb-22 08:24N 29°21' W 094°45'0 0.0
2017-Feb-21 23:27N 29°21' W 094°45'  
2017-Feb-19 18:16N 29°12' W 094°34'4 0.4
2017-Feb-19 07:33N 29°11' W 094°30'1414.0
2017-Feb-19 06:33N 29°16' W 094°14'2016.5
2017-Feb-19 05:21N 29°29' W 093°57'1316.8
2017-Feb-19 04:33N 29°32' W 093°43'1616.6
2017-Feb-19 03:33N 29°36' W 093°24'1010.3
2017-Feb-19 02:33N 29°46' W 093°21'8 7.9
2017-Feb-19 01:34N 29°54' W 093°21'7 7.2
2017-Feb-19 00:34N 30°01' W 093°20'8 8.0
2017-Feb-18 23:34N 30°09' W 093°20'4 4.5
2017-Feb-18 22:34N 30°12' W 093°17'1 0.1
2017-Feb-18 03:17N 30°13' W 093°17'0 0.0
2017-Feb-18 02:23N 30°13' W 093°17'0 0.0
2017-Feb-17 21:05N 30°13' W 093°17'0 0.0
2017-Feb-17 17:34N 30°13' W 093°17'3 3.1
2017-Feb-17 16:34N 30°11' W 093°19'6 6.4
2017-Feb-17 15:34N 30°04' W 093°20'8 8.4
2017-Feb-17 14:34N 29°56' W 093°20'1110.8
2017-Feb-17 13:33N 29°45' W 093°21'9 9.0
2017-Feb-17 12:33N 29°37' W 093°16'0 0.2
2017-Feb-17 10:28N 29°37' W 093°16'0 0.0
2017-Feb-17 09:31N 29°37' W 093°16'0 0.0
2017-Feb-17 06:28N 29°37' W 093°16'0 0.0
2017-Feb-17 05:28N 29°37' W 093°16'0 0.0
2017-Feb-17 02:25N 29°37' W 093°16'0 0.0
2017-Feb-17 01:31N 29°37' W 093°16'  
2017-Feb-14 16:32N 25°01' W 080°11'1616.0
2017-Feb-14 15:33N 25°16' W 080°05'1414.3
2017-Feb-14 14:33N 25°30' W 080°02'1414.2
2017-Feb-14 13:33N 25°44' W 080°01'1313.3
2017-Feb-14 12:33N 25°57' W 079°59'1313.4
2017-Feb-14 11:33N 26°10' W 079°58'1413.7
2017-Feb-14 10:33N 26°24' W 079°57'1514.9
2017-Feb-14 09:33N 26°39' W 079°56'1414.1
2017-Feb-14 08:33N 26°53' W 079°55'1414.2
2017-Feb-14 07:33N 27°07' W 079°58'31515.4
2017-Feb-13 11:04N 32°16' W 078°47'916.6
2017-Feb-13 10:33N 32°22' W 078°40'  

Dump ship's entire track history